SAS7915 ESGG-LDSP
Flight info
| Callsign | SAS7915 |
|---|---|
| Flight time | 2h 23m |
| Altitude | 35000 |
| Route | TOPLA DCT EXENA DCT DEMUR DCT DESEN DCT ESETO DCT XOMBA DCT OSDUK/N0433F360 DCT KENEM |
| Aircraft | A320/M-SDE3FGHIRWY/LB1 |
Departure
| Time | 2026-05-04 09:25 |
|---|---|
| Airport | Göteborg Landvetter Airport (ESGG) |
Arrival
| Time | 2026-05-04 11:49 |
|---|---|
| Airport | Split Saint Jerome Airport (LDSP) |
| Time | Latitude | Longitude | Altitude | Speed | Heading |
|---|---|---|---|---|---|
| 2026-05-04 09:04 | 57.66778 | 12.29312 | 516 ft | 0 kts | 116° |
| 2026-05-04 09:14 | 57.66791 | 12.29263 | 516 ft | 2 kts | 116° |
| 2026-05-04 09:14 | 57.66800 | 12.29235 | 516 ft | 2 kts | 112° |
| 2026-05-04 09:14 | 57.66810 | 12.29211 | 516 ft | 2 kts | 146° |
| 2026-05-04 09:14 | 57.66819 | 12.29199 | 516 ft | 2 kts | 184° |
| 2026-05-04 09:15 | 57.66835 | 12.29209 | 516 ft | 2 kts | 220° |
| 2026-05-04 09:15 | 57.66841 | 12.29218 | 516 ft | 0 kts | 202° |
| 2026-05-04 09:20 | 57.66837 | 12.29215 | 516 ft | 1 kts | 202° |
| 2026-05-04 09:20 | 57.66819 | 12.29200 | 516 ft | 5 kts | 202° |
| 2026-05-04 09:20 | 57.66775 | 12.29158 | 516 ft | 8 kts | 224° |
| 2026-05-04 09:20 | 57.66785 | 12.29054 | 516 ft | 10 kts | 293° |
| 2026-05-04 09:21 | 57.66846 | 12.29004 | 516 ft | 12 kts | 23° |
| 2026-05-04 09:21 | 57.66930 | 12.29086 | 516 ft | 14 kts | 26° |
| 2026-05-04 09:21 | 57.67024 | 12.29170 | 516 ft | 16 kts | 25° |
| 2026-05-04 09:21 | 57.67126 | 12.29260 | 516 ft | 17 kts | 26° |
| 2026-05-04 09:22 | 57.67234 | 12.29361 | 516 ft | 18 kts | 26° |
| 2026-05-04 09:22 | 57.67336 | 12.29452 | 516 ft | 5 kts | 26° |
| 2026-05-04 09:22 | 57.67338 | 12.29454 | 516 ft | 0 kts | 26° |
| 2026-05-04 09:22 | 57.67342 | 12.29458 | 516 ft | 3 kts | 26° |
| 2026-05-04 09:23 | 57.67373 | 12.29485 | 516 ft | 7 kts | 22° |
| 2026-05-04 09:23 | 57.67418 | 12.29443 | 515 ft | 9 kts | 306° |
| 2026-05-04 09:23 | 57.67450 | 12.29329 | 515 ft | 11 kts | 295° |
| 2026-05-04 09:23 | 57.67456 | 12.29175 | 514 ft | 14 kts | 267° |
| 2026-05-04 09:25 | 57.64869 | 12.26717 | 1014 ft | 156 kts | 211° |
| 2026-05-04 09:25 | 57.63896 | 12.25852 | 1672 ft | 158 kts | 210° |
| 2026-05-04 09:26 | 57.62863 | 12.24893 | 1963 ft | 177 kts | 210° |
| 2026-05-04 09:26 | 57.61691 | 12.23807 | 2228 ft | 198 kts | 210° |
| 2026-05-04 09:26 | 57.60294 | 12.22957 | 2410 ft | 228 kts | 193° |
| 2026-05-04 09:26 | 57.58617 | 12.22633 | 2748 ft | 254 kts | 188° |
| 2026-05-04 09:27 | 57.56826 | 12.22462 | 3481 ft | 260 kts | 187° |
| 2026-05-04 09:27 | 57.54996 | 12.22525 | 4333 ft | 268 kts | 176° |
| 2026-05-04 09:27 | 57.53134 | 12.23066 | 5174 ft | 271 kts | 175° |
| 2026-05-04 09:27 | 57.51281 | 12.23628 | 6000 ft | 275 kts | 175° |
| 2026-05-04 09:28 | 57.49382 | 12.24233 | 6776 ft | 280 kts | 171° |
| 2026-05-04 09:28 | 57.47502 | 12.25392 | 7525 ft | 286 kts | 165° |
| 2026-05-04 09:28 | 57.45622 | 12.26666 | 8295 ft | 289 kts | 165° |
| 2026-05-04 09:28 | 57.43726 | 12.27971 | 9080 ft | 292 kts | 165° |
| 2026-05-04 09:29 | 57.41805 | 12.29296 | 9816 ft | 296 kts | 165° |
| 2026-05-04 09:29 | 57.39838 | 12.30648 | 10208 ft | 312 kts | 165° |
| 2026-05-04 09:29 | 57.37731 | 12.32078 | 10363 ft | 333 kts | 165° |
| 2026-05-04 09:29 | 57.35538 | 12.33570 | 10824 ft | 343 kts | 165° |
| 2026-05-04 09:30 | 57.33289 | 12.35110 | 11441 ft | 346 kts | 165° |
| 2026-05-04 09:30 | 57.31016 | 12.36667 | 12083 ft | 349 kts | 165° |
| 2026-05-04 09:30 | 57.28725 | 12.38233 | 12764 ft | 351 kts | 165° |
| 2026-05-04 09:30 | 57.26421 | 12.39800 | 13431 ft | 354 kts | 165° |
| 2026-05-04 09:31 | 57.24095 | 12.41379 | 14041 ft | 357 kts | 165° |
| 2026-05-04 09:31 | 57.21754 | 12.42963 | 14606 ft | 360 kts | 166° |
| 2026-05-04 09:31 | 57.19414 | 12.44540 | 15155 ft | 362 kts | 166° |
| 2026-05-04 09:31 | 57.17031 | 12.46143 | 15719 ft | 365 kts | 166° |
| 2026-05-04 09:32 | 57.14634 | 12.47757 | 16254 ft | 368 kts | 166° |
| 2026-05-04 09:32 | 57.12218 | 12.49388 | 16812 ft | 371 kts | 166° |
| 2026-05-04 09:34 | 56.95260 | 12.64054 | 20517 ft | 394 kts | 160° |
| 2026-05-04 09:34 | 56.92795 | 12.66205 | 21040 ft | 396 kts | 160° |
| 2026-05-04 09:34 | 56.90296 | 12.68374 | 21541 ft | 398 kts | 160° |
| 2026-05-04 09:34 | 56.87784 | 12.70548 | 22048 ft | 401 kts | 160° |
| 2026-05-04 09:35 | 56.85248 | 12.72738 | 22524 ft | 403 kts | 160° |
| 2026-05-04 09:35 | 56.82700 | 12.74938 | 23016 ft | 405 kts | 160° |
| 2026-05-04 09:35 | 56.80177 | 12.77116 | 23484 ft | 408 kts | 160° |
| 2026-05-04 09:35 | 56.77607 | 12.79331 | 23872 ft | 410 kts | 160° |
| 2026-05-04 09:37 | 56.59225 | 12.95080 | 26403 ft | 423 kts | 161° |
| 2026-05-04 09:37 | 56.56555 | 12.97352 | 26749 ft | 425 kts | 161° |
| 2026-05-04 09:38 | 56.53907 | 12.99601 | 27087 ft | 427 kts | 161° |
| 2026-05-04 09:38 | 56.51180 | 13.01916 | 27413 ft | 429 kts | 161° |
| 2026-05-04 09:38 | 56.48467 | 13.04221 | 27754 ft | 431 kts | 161° |
| 2026-05-04 09:38 | 56.45780 | 13.06494 | 28072 ft | 433 kts | 161° |
| 2026-05-04 09:39 | 56.43041 | 13.08804 | 28400 ft | 435 kts | 161° |
| 2026-05-04 09:39 | 56.40290 | 13.11120 | 28687 ft | 437 kts | 161° |
| 2026-05-04 09:39 | 56.37524 | 13.13449 | 28995 ft | 438 kts | 161° |
| 2026-05-04 09:39 | 56.34753 | 13.15782 | 29388 ft | 438 kts | 161° |
| 2026-05-04 09:40 | 56.31991 | 13.18108 | 29847 ft | 437 kts | 161° |
| 2026-05-04 09:40 | 56.29233 | 13.20427 | 30237 ft | 436 kts | 161° |
| 2026-05-04 09:40 | 56.26483 | 13.22733 | 30617 ft | 435 kts | 161° |
| 2026-05-04 09:40 | 56.23779 | 13.24993 | 31003 ft | 434 kts | 161° |
| 2026-05-04 09:41 | 56.21036 | 13.27281 | 31394 ft | 433 kts | 162° |
| 2026-05-04 09:42 | 56.02049 | 13.43016 | 34040 ft | 427 kts | 162° |
| 2026-05-04 09:43 | 55.99344 | 13.45237 | 34321 ft | 427 kts | 162° |
| 2026-05-04 09:43 | 55.96673 | 13.47425 | 34563 ft | 427 kts | 162° |
| 2026-05-04 09:43 | 55.93973 | 13.49634 | 34787 ft | 428 kts | 162° |
| 2026-05-04 09:43 | 55.91247 | 13.51864 | 34870 ft | 431 kts | 162° |
| 2026-05-04 09:44 | 55.85744 | 13.56372 | 34880 ft | 437 kts | 162° |
| 2026-05-04 09:46 | 55.63803 | 13.74202 | 34890 ft | 433 kts | 163° |
| 2026-05-04 09:46 | 55.58311 | 13.78632 | 34888 ft | 433 kts | 163° |
| 2026-05-04 09:47 | 55.52815 | 13.83049 | 34897 ft | 433 kts | 163° |
| 2026-05-04 09:49 | 55.30950 | 14.00478 | 34899 ft | 430 kts | 163° |
| 2026-05-04 09:51 | 55.11887 | 14.15496 | 34925 ft | 429 kts | 163° |
| 2026-05-04 09:51 | 55.06476 | 14.19732 | 34923 ft | 428 kts | 164° |
| 2026-05-04 09:52 | 55.01020 | 14.23991 | 34934 ft | 428 kts | 164° |
| 2026-05-04 09:52 | 54.95568 | 14.28237 | 34936 ft | 428 kts | 164° |
| 2026-05-04 09:53 | 54.90158 | 14.32422 | 34908 ft | 427 kts | 163° |
| 2026-05-04 09:53 | 54.84707 | 14.36622 | 34929 ft | 427 kts | 163° |
| 2026-05-04 09:54 | 54.79271 | 14.40816 | 34942 ft | 426 kts | 163° |
| 2026-05-04 09:54 | 54.73881 | 14.44970 | 34945 ft | 426 kts | 163° |
| 2026-05-04 09:55 | 54.68455 | 14.49130 | 34952 ft | 426 kts | 163° |
| 2026-05-04 09:55 | 54.63022 | 14.53287 | 34938 ft | 426 kts | 163° |
| 2026-05-04 09:56 | 54.57631 | 14.57399 | 34950 ft | 426 kts | 163° |
| 2026-05-04 09:56 | 54.52205 | 14.61517 | 34953 ft | 425 kts | 163° |
| 2026-05-04 09:57 | 54.46806 | 14.65598 | 34934 ft | 426 kts | 163° |
| 2026-05-04 09:57 | 54.41366 | 14.69711 | 34938 ft | 427 kts | 163° |
| 2026-05-04 09:58 | 54.35939 | 14.73797 | 34926 ft | 427 kts | 163° |
| 2026-05-04 09:58 | 54.30479 | 14.77903 | 34937 ft | 428 kts | 163° |
| 2026-05-04 10:00 | 54.09569 | 14.93515 | 34971 ft | 428 kts | 163° |
| 2026-05-04 10:04 | 53.71181 | 15.21688 | 34957 ft | 431 kts | 163° |
| 2026-05-04 10:04 | 53.65662 | 15.25696 | 34967 ft | 431 kts | 163° |
| 2026-05-04 10:05 | 53.60188 | 15.29663 | 34970 ft | 431 kts | 163° |
| 2026-05-04 10:05 | 53.54656 | 15.33646 | 34978 ft | 431 kts | 163° |
| 2026-05-04 10:06 | 53.49131 | 15.37624 | 34952 ft | 431 kts | 163° |
| 2026-05-04 10:06 | 53.43641 | 15.41572 | 34958 ft | 432 kts | 163° |
| 2026-05-04 10:08 | 53.24259 | 15.55391 | 34963 ft | 433 kts | 163° |
| 2026-05-04 10:08 | 53.18690 | 15.59332 | 34947 ft | 435 kts | 163° |
| 2026-05-04 10:09 | 53.13105 | 15.63274 | 34956 ft | 436 kts | 163° |
| 2026-05-04 10:09 | 53.07537 | 15.67204 | 34965 ft | 437 kts | 163° |
| 2026-05-04 10:10 | 53.01932 | 15.71148 | 34970 ft | 437 kts | 163° |
| 2026-05-04 10:10 | 52.96325 | 15.75074 | 34986 ft | 438 kts | 163° |
| 2026-05-04 10:11 | 52.90709 | 15.78996 | 34986 ft | 438 kts | 163° |
| 2026-05-04 10:11 | 52.85124 | 15.82886 | 34997 ft | 438 kts | 163° |
| 2026-05-04 10:12 | 52.79503 | 15.86794 | 34981 ft | 438 kts | 163° |
| 2026-05-04 10:12 | 52.73875 | 15.90686 | 34996 ft | 438 kts | 163° |
| 2026-05-04 10:13 | 52.68252 | 15.94561 | 35002 ft | 438 kts | 163° |
| 2026-05-04 10:13 | 52.62615 | 15.98437 | 34994 ft | 438 kts | 162° |
| 2026-05-04 10:14 | 52.57026 | 16.02289 | 34999 ft | 438 kts | 162° |
| 2026-05-04 10:16 | 52.34522 | 16.17639 | 35017 ft | 437 kts | 162° |
| 2026-05-04 10:16 | 52.28925 | 16.21429 | 35010 ft | 437 kts | 162° |
| 2026-05-04 10:17 | 52.23303 | 16.25241 | 35013 ft | 437 kts | 162° |
| 2026-05-04 10:19 | 52.00840 | 16.40303 | 34987 ft | 437 kts | 162° |
| 2026-05-04 10:19 | 51.95206 | 16.44064 | 35005 ft | 436 kts | 162° |
| 2026-05-04 10:20 | 51.89608 | 16.47800 | 35014 ft | 436 kts | 162° |
| 2026-05-04 10:20 | 51.83995 | 16.51529 | 35004 ft | 436 kts | 162° |
| 2026-05-04 10:21 | 51.78375 | 16.55240 | 35010 ft | 435 kts | 162° |
| 2026-05-04 10:21 | 51.72789 | 16.58913 | 35015 ft | 435 kts | 162° |
| 2026-05-04 10:22 | 51.64355 | 16.64458 | 35012 ft | 435 kts | 162° |
| 2026-05-04 10:23 | 51.58775 | 16.68105 | 35010 ft | 435 kts | 162° |
| 2026-05-04 10:25 | 51.36274 | 16.82753 | 35011 ft | 437 kts | 162° |
| 2026-05-04 10:25 | 51.30655 | 16.86381 | 35016 ft | 437 kts | 162° |
| 2026-05-04 10:26 | 51.25011 | 16.90016 | 35001 ft | 437 kts | 162° |
| 2026-05-04 10:26 | 51.19348 | 16.93656 | 34989 ft | 438 kts | 161° |
| 2026-05-04 10:27 | 51.13701 | 16.97276 | 34990 ft | 439 kts | 161° |
| 2026-05-04 10:27 | 51.08020 | 17.00905 | 34995 ft | 439 kts | 161° |
| 2026-05-04 10:28 | 51.02336 | 17.04537 | 34989 ft | 440 kts | 161° |
| 2026-05-04 10:28 | 50.96639 | 17.08157 | 34994 ft | 440 kts | 161° |
| 2026-05-04 10:29 | 50.90967 | 17.11752 | 35002 ft | 441 kts | 161° |
| 2026-05-04 10:29 | 50.85260 | 17.15355 | 35002 ft | 441 kts | 161° |
| 2026-05-04 10:30 | 50.79557 | 17.18960 | 35014 ft | 441 kts | 161° |
| 2026-05-04 10:30 | 50.73874 | 17.22540 | 35007 ft | 441 kts | 161° |
| 2026-05-04 10:31 | 50.68163 | 17.26126 | 35012 ft | 441 kts | 161° |
| 2026-05-04 10:32 | 50.48178 | 17.38600 | 35021 ft | 442 kts | 161° |
| 2026-05-04 10:33 | 50.42469 | 17.42136 | 35017 ft | 442 kts | 161° |
| 2026-05-04 10:33 | 50.36738 | 17.45684 | 35022 ft | 442 kts | 161° |
| 2026-05-04 10:34 | 50.31003 | 17.49216 | 35028 ft | 442 kts | 161° |
| 2026-05-04 10:34 | 50.25147 | 17.52046 | 35030 ft | 438 kts | 174° |
| 2026-05-04 10:35 | 50.19139 | 17.53253 | 35021 ft | 437 kts | 176° |
| 2026-05-04 10:35 | 50.13084 | 17.54440 | 35022 ft | 437 kts | 175° |
| 2026-05-04 10:36 | 50.07075 | 17.55627 | 35035 ft | 438 kts | 175° |
| 2026-05-04 10:36 | 50.01024 | 17.56810 | 35037 ft | 438 kts | 175° |
| 2026-05-04 10:37 | 49.94967 | 17.57978 | 35017 ft | 439 kts | 176° |
| 2026-05-04 10:37 | 49.88889 | 17.59164 | 35018 ft | 440 kts | 175° |
| 2026-05-04 10:39 | 49.67581 | 17.63305 | 35033 ft | 442 kts | 176° |
| 2026-05-04 10:40 | 49.61502 | 17.64475 | 35044 ft | 442 kts | 175° |
| 2026-05-04 10:40 | 49.55386 | 17.65656 | 35052 ft | 442 kts | 175° |
| 2026-05-04 10:41 | 49.49283 | 17.66826 | 35046 ft | 442 kts | 175° |
| 2026-05-04 10:41 | 49.43194 | 17.67984 | 35043 ft | 442 kts | 176° |
| 2026-05-04 10:42 | 49.37064 | 17.69160 | 35059 ft | 443 kts | 175° |
| 2026-05-04 10:42 | 49.30969 | 17.70319 | 35055 ft | 443 kts | 175° |
| 2026-05-04 10:43 | 49.24845 | 17.71467 | 35062 ft | 443 kts | 176° |
| 2026-05-04 10:45 | 49.00445 | 17.77241 | 35079 ft | 444 kts | 173° |
| 2026-05-04 10:45 | 48.95366 | 17.78432 | 35080 ft | 444 kts | 174° |
| 2026-05-04 10:46 | 48.88259 | 17.80104 | 35067 ft | 444 kts | 174° |
| 2026-05-04 10:46 | 48.83163 | 17.81316 | 35055 ft | 446 kts | 174° |
| 2026-05-04 10:47 | 48.77011 | 17.82775 | 35071 ft | 447 kts | 174° |
| 2026-05-04 10:47 | 48.70850 | 17.84219 | 35084 ft | 447 kts | 173° |
| 2026-05-04 10:49 | 48.46270 | 17.89986 | 35081 ft | 448 kts | 173° |
| 2026-05-04 10:50 | 48.40145 | 17.91398 | 35087 ft | 447 kts | 173° |
| 2026-05-04 10:52 | 48.15446 | 17.97112 | 35082 ft | 449 kts | 173° |
| 2026-05-04 10:52 | 48.09289 | 17.98529 | 35083 ft | 449 kts | 173° |
| 2026-05-04 10:54 | 47.84555 | 18.04168 | 35096 ft | 450 kts | 173° |
| 2026-05-04 10:56 | 47.59629 | 18.06805 | 35102 ft | 450 kts | 180° |
| 2026-05-04 10:57 | 47.53362 | 18.07036 | 35099 ft | 450 kts | 180° |
| 2026-05-04 10:57 | 47.47076 | 18.07261 | 35099 ft | 451 kts | 180° |
| 2026-05-04 10:58 | 47.40823 | 18.07492 | 35105 ft | 451 kts | 180° |
| 2026-05-04 10:58 | 47.34539 | 18.07726 | 35119 ft | 451 kts | 180° |
| 2026-05-04 10:59 | 47.28293 | 18.07969 | 35118 ft | 451 kts | 180° |
| 2026-05-04 10:59 | 47.21995 | 18.08202 | 35117 ft | 452 kts | 180° |
| 2026-05-04 11:00 | 47.15684 | 18.08428 | 35116 ft | 452 kts | 180° |
| 2026-05-04 11:02 | 46.90518 | 18.09362 | 35136 ft | 452 kts | 180° |
| 2026-05-04 11:05 | 46.43325 | 18.11079 | 35123 ft | 454 kts | 180° |
| 2026-05-04 11:06 | 46.36984 | 18.11299 | 35128 ft | 455 kts | 180° |
| 2026-05-04 11:06 | 46.30690 | 18.11519 | 35131 ft | 455 kts | 180° |
| 2026-05-04 11:10 | 45.86383 | 18.13099 | 35130 ft | 457 kts | 180° |
| 2026-05-04 11:12 | 45.65261 | 18.05625 | 35123 ft | 451 kts | 204° |
| 2026-05-04 11:12 | 45.62343 | 18.03962 | 35132 ft | 451 kts | 204° |
| 2026-05-04 11:12 | 45.56499 | 18.00647 | 35135 ft | 452 kts | 204° |
| 2026-05-04 11:13 | 45.50653 | 17.97334 | 35130 ft | 452 kts | 204° |
| 2026-05-04 11:13 | 45.44841 | 17.94037 | 35134 ft | 451 kts | 204° |
| 2026-05-04 11:14 | 45.38999 | 17.90734 | 35135 ft | 451 kts | 204° |
| 2026-05-04 11:16 | 45.15651 | 17.77601 | 35136 ft | 451 kts | 204° |
| 2026-05-04 11:16 | 45.09804 | 17.74337 | 35134 ft | 451 kts | 204° |
| 2026-05-04 11:17 | 45.03952 | 17.71069 | 35133 ft | 452 kts | 204° |
| 2026-05-04 11:19 | 44.83572 | 17.59747 | 34505 ft | 446 kts | 204° |
| 2026-05-04 11:19 | 44.80693 | 17.58162 | 34150 ft | 442 kts | 204° |
| 2026-05-04 11:19 | 44.77831 | 17.56583 | 33613 ft | 440 kts | 204° |
| 2026-05-04 11:19 | 44.74998 | 17.55018 | 33137 ft | 436 kts | 204° |
| 2026-05-04 11:20 | 44.72180 | 17.53464 | 32656 ft | 433 kts | 204° |
| 2026-05-04 11:20 | 44.69374 | 17.51917 | 32155 ft | 431 kts | 204° |
| 2026-05-04 11:20 | 44.66589 | 17.50381 | 31681 ft | 429 kts | 204° |
| 2026-05-04 11:20 | 44.63826 | 17.48857 | 31210 ft | 426 kts | 204° |
| 2026-05-04 11:22 | 44.44873 | 17.38491 | 28014 ft | 409 kts | 203° |
| 2026-05-04 11:22 | 44.42232 | 17.37051 | 27597 ft | 406 kts | 203° |
| 2026-05-04 11:23 | 44.39598 | 17.35614 | 27179 ft | 404 kts | 203° |
| 2026-05-04 11:23 | 44.36984 | 17.34191 | 26768 ft | 403 kts | 203° |
| 2026-05-04 11:24 | 44.21406 | 17.25732 | 24190 ft | 399 kts | 202° |
| 2026-05-04 11:25 | 44.18812 | 17.24333 | 23730 ft | 400 kts | 202° |
| 2026-05-04 11:25 | 44.16215 | 17.22936 | 23319 ft | 397 kts | 202° |
| 2026-05-04 11:25 | 44.13637 | 17.21549 | 22823 ft | 396 kts | 202° |
| 2026-05-04 11:26 | 44.08544 | 17.18806 | 22027 ft | 388 kts | 201° |
| 2026-05-04 11:27 | 43.91345 | 17.09576 | 18633 ft | 362 kts | 200° |
| 2026-05-04 11:28 | 43.89045 | 17.08346 | 18177 ft | 348 kts | 200° |
| 2026-05-04 11:28 | 43.86824 | 17.07160 | 17757 ft | 335 kts | 201° |
| 2026-05-04 11:28 | 43.84687 | 17.06019 | 17360 ft | 322 kts | 200° |
| 2026-05-04 11:28 | 43.82595 | 17.04905 | 16973 ft | 321 kts | 200° |
| 2026-05-04 11:29 | 43.80531 | 17.03807 | 16583 ft | 321 kts | 200° |
| 2026-05-04 11:29 | 43.78434 | 17.02691 | 16194 ft | 321 kts | 200° |
| 2026-05-04 11:29 | 43.76344 | 17.01579 | 15802 ft | 321 kts | 200° |
| 2026-05-04 11:29 | 43.74282 | 17.00482 | 15416 ft | 321 kts | 200° |
| 2026-05-04 11:31 | 43.61529 | 16.90534 | 12785 ft | 324 kts | 239° |
| 2026-05-04 11:33 | 43.53561 | 16.72249 | 10440 ft | 310 kts | 239° |
| 2026-05-04 11:33 | 43.52452 | 16.69717 | 10150 ft | 307 kts | 238° |
| 2026-05-04 11:33 | 43.51352 | 16.67204 | 9938 ft | 302 kts | 238° |
| 2026-05-04 11:34 | 43.50281 | 16.64766 | 9593 ft | 300 kts | 238° |
| 2026-05-04 11:34 | 43.49199 | 16.62304 | 9280 ft | 298 kts | 238° |
| 2026-05-04 11:34 | 43.48131 | 16.59872 | 9071 ft | 295 kts | 238° |
| 2026-05-04 11:34 | 43.47079 | 16.57474 | 8907 ft | 294 kts | 239° |
| 2026-05-04 11:35 | 43.46026 | 16.55073 | 8735 ft | 293 kts | 239° |
| 2026-05-04 11:35 | 43.44973 | 16.52681 | 8580 ft | 290 kts | 239° |
| 2026-05-04 11:35 | 43.43925 | 16.50303 | 8414 ft | 291 kts | 239° |
| 2026-05-04 11:35 | 43.42874 | 16.47926 | 8247 ft | 290 kts | 239° |
| 2026-05-04 11:36 | 43.41822 | 16.45544 | 8077 ft | 290 kts | 238° |
| 2026-05-04 11:36 | 43.40577 | 16.43377 | 7909 ft | 288 kts | 224° |
| 2026-05-04 11:36 | 43.38974 | 16.41718 | 7739 ft | 287 kts | 209° |
| 2026-05-04 11:36 | 43.37183 | 16.40597 | 7577 ft | 286 kts | 202° |
| 2026-05-04 11:37 | 43.35344 | 16.39534 | 7410 ft | 287 kts | 202° |
| 2026-05-04 11:37 | 43.33508 | 16.38468 | 7240 ft | 286 kts | 203° |
| 2026-05-04 11:37 | 43.31671 | 16.37398 | 7062 ft | 288 kts | 203° |
| 2026-05-04 11:37 | 43.29825 | 16.36321 | 6900 ft | 287 kts | 203° |
| 2026-05-04 11:38 | 43.27994 | 16.35252 | 6701 ft | 281 kts | 203° |
| 2026-05-04 11:38 | 43.26224 | 16.34219 | 6400 ft | 273 kts | 203° |
| 2026-05-04 11:38 | 43.24509 | 16.33218 | 6290 ft | 269 kts | 204° |
| 2026-05-04 11:38 | 43.22782 | 16.32212 | 6195 ft | 271 kts | 204° |
| 2026-05-04 11:39 | 43.21235 | 16.30795 | 6040 ft | 267 kts | 230° |
| 2026-05-04 11:39 | 43.20365 | 16.28593 | 5872 ft | 263 kts | 259° |
| 2026-05-04 11:40 | 43.25371 | 16.16890 | 4848 ft | 251 kts | 358° |
| 2026-05-04 11:41 | 43.27055 | 16.17321 | 4691 ft | 253 kts | 21° |
| 2026-05-04 11:41 | 43.28690 | 16.18258 | 4538 ft | 255 kts | 23° |
| 2026-05-04 11:41 | 43.30321 | 16.19213 | 4374 ft | 255 kts | 22° |
| 2026-05-04 11:41 | 43.31953 | 16.20171 | 4226 ft | 254 kts | 23° |
| 2026-05-04 11:42 | 43.33583 | 16.21129 | 4072 ft | 254 kts | 25° |
| 2026-05-04 11:42 | 43.35064 | 16.22453 | 3919 ft | 254 kts | 41° |
| 2026-05-04 11:42 | 43.36342 | 16.24016 | 3816 ft | 244 kts | 41° |
| 2026-05-04 11:42 | 43.37590 | 16.25532 | 3690 ft | 234 kts | 41° |
| 2026-05-04 11:43 | 43.38788 | 16.26985 | 3564 ft | 225 kts | 41° |
| 2026-05-04 11:43 | 43.39942 | 16.28386 | 3450 ft | 216 kts | 41° |
| 2026-05-04 11:43 | 43.41045 | 16.29725 | 3368 ft | 205 kts | 41° |
| 2026-05-04 11:43 | 43.42079 | 16.30979 | 3242 ft | 193 kts | 41° |
| 2026-05-04 11:44 | 43.43057 | 16.32163 | 3129 ft | 180 kts | 42° |
| 2026-05-04 11:44 | 43.43948 | 16.33243 | 3057 ft | 163 kts | 42° |
| 2026-05-04 11:44 | 43.44779 | 16.34254 | 2958 ft | 159 kts | 42° |
| 2026-05-04 11:44 | 43.45602 | 16.35254 | 2745 ft | 159 kts | 43° |
| 2026-05-04 11:45 | 43.46416 | 16.36247 | 2515 ft | 155 kts | 44° |
| 2026-05-04 11:45 | 43.47229 | 16.37242 | 2318 ft | 156 kts | 44° |
| 2026-05-04 11:45 | 43.48048 | 16.38237 | 2070 ft | 157 kts | 41° |
| 2026-05-04 11:45 | 43.48869 | 16.39227 | 1865 ft | 156 kts | 43° |
| 2026-05-04 11:46 | 43.49851 | 16.39797 | 1595 ft | 153 kts | 3° |
| 2026-05-04 11:46 | 43.50889 | 16.39665 | 1331 ft | 149 kts | 347° |
| 2026-05-04 11:46 | 43.51909 | 16.39588 | 1158 ft | 146 kts | 0° |
| 2026-05-04 11:46 | 43.52927 | 16.39610 | 1177 ft | 147 kts | 353° |
| 2026-05-04 11:47 | 43.53851 | 16.39054 | 1213 ft | 147 kts | 320° |
| 2026-05-04 11:47 | 43.54546 | 16.38020 | 1158 ft | 146 kts | 307° |
| 2026-05-04 11:47 | 43.55158 | 16.36923 | 1103 ft | 145 kts | 303° |
| 2026-05-04 11:47 | 43.55552 | 16.35649 | 1086 ft | 146 kts | 283° |
| 2026-05-04 11:48 | 43.55685 | 16.34264 | 815 ft | 146 kts | 268° |
| 2026-05-04 11:48 | 43.55498 | 16.32928 | 460 ft | 140 kts | 243° |
| 2026-05-04 11:48 | 43.55011 | 16.31796 | 287 ft | 136 kts | 233° |
| 2026-05-04 11:48 | 43.54439 | 16.30773 | 76 ft | 135 kts | 232° |
| 2026-05-04 11:49 | 43.53957 | 16.29908 | 76 ft | 79 kts | 233° |
| 2026-05-04 11:49 | 43.53777 | 16.29581 | 81 ft | 24 kts | 234° |
| 2026-05-04 11:49 | 43.53708 | 16.29498 | 81 ft | 7 kts | 160° |
| 2026-05-04 11:49 | 43.53684 | 16.29578 | 65 ft | 11 kts | 134° |
| 2026-05-04 11:50 | 43.53591 | 16.29618 | 65 ft | 11 kts | 146° |
| 2026-05-04 11:50 | 43.53553 | 16.29657 | 65 ft | 7 kts | 143° |
| 2026-05-04 11:50 | 43.53512 | 16.29701 | 65 ft | 6 kts | 142° |
| 2026-05-04 11:50 | 43.53469 | 16.29693 | 68 ft | 7 kts | 184° |
| 2026-05-04 11:51 | 43.53463 | 16.29693 | 68 ft | 0 kts | 183° |